Pagrindinis puslapis
METAR-TAF:

METAR-TAF

Oro uostai :

Mumbajus, Indija

platuma: 19-07N, ilguma: 072-51E, Aukštis: 8 m

Dabartinis oras

Ataskaita buvo paskelbta 42 minutes, ne 11:30 UTC
Vėjas 6 kt iš Vakarų/Šiaurės Vakarų
Temperatūra 30°C
Drėgmė 59%
Slėgis 1010 hPa
Matomumas: 3000 m
Su prošvaistėmis ne aukštis 10000 ft
dūmai

METAR: VABB 151130Z 29006KT 3000 FU BKN100 30/21 Q1010 NOSIG

Laikas: 17:42 (12:12 UTC)

Prognozė

Ataskaita buvo paskelbta 1 valandą ir 12 minutes, ne 11:00 UTC
Prognozė galioja nuo 15 metu 12 UTC su 15 metu 21 UTC
Vėjas 10 kt iš Vakarų
Matomumas: 3000 m
Mažai debesys ne aukštis 2000 ft
Išsisklaidę debesys ne aukštis 10000 ft
dūmai
Tapsmas
nuo 15 metu 15 UTC su 15 metu 17 UTC
Vėjas 6 kt iš Šiaurės/Šiaurės Vakarų
Matomumas: 2500 m
migla

TAF: VABB 151100Z 1512/1521 26010KT 3000 FU FEW020 SCT100 BECMG 1515/1517 33006KT 2500 HZ

Orai ataskaitas ir orų prognozės (METAR, TAF).

turimą stotys yra geltonos ir raudonos taškus žemėlapyje.

Perkelti pele per norėdami pamatyti stoties vardą.

Tada spustelėkite, norėdami matyti oro stebėjimo ir prognozės.

Norėdami pakeisti žemėlapį: spustelėkite ant žalios mygtukų su juodo kryžiaus žemyn,; žalią mygtuką su brūkšneliu, jei norite nutolinti; arba žalių rodyklių gretimoms žemėlapius.


METAR-TAF: